Time;durP1;ratioP1;P1;durP2;ratioP2;P2;SDS_P1;SDS_P2;PMS_P1;PMS_P2;Temp;Humidity;BMP_temperature;BMP_pressure;BME280_temperature;BME280_humidity;BME280_pressure;Samples;Min_cycle;Max_cycle;Signal;HPM_P1;HPM_P2
2022/01/10 00:00:42;;;;;;;;;;;;;;;;;;5063736;28;19924;-96
2022/01/10 00:03:08;;;;;;;;;;;;;;;;;;5064357;28;20019;-96
2022/01/10 00:05:35;;;;;;;;;;;;;;;;;;5065234;28;19995;-96
2022/01/10 00:08:04;;;;;;;;;;;;;;;;;;5065765;28;19971;-95
2022/01/10 00:10:31;;;;;;;;;;;;;;;;;;5080407;28;19939;-96
2022/01/10 00:12:57;;;;;;;;;;;;;;;;;;5081796;28;19928;-96
2022/01/10 00:15:23;;;;;;;;;;;;;;;;;;5066012;28;19924;-94
2022/01/10 00:17:49;;;;;;;;;;;;;;;;;;5065071;28;20376;-94
2022/01/10 00:20:16;;;;;;;;;;;;;;;;;;5065203;28;20027;-94
2022/01/10 00:22:45;;;;;;;;;;;;;;;;;;5064181;28;19929;-95
2022/01/10 00:25:12;;;;;;;;;;;;;;;;;;5063705;28;19975;-94
2022/01/10 00:27:38;;;;;;;;;;;;;;;;;;5063241;28;19936;-94
2022/01/10 00:30:04;;;;;;;;;;;;;;;;;;5080410;28;19939;-95
2022/01/10 00:32:30;;;;;;;;;;;;;;;;;;5073445;28;19994;-94
2022/01/10 00:34:57;;;;;;;;;;;;;;;;;;5065687;28;19935;-94
2022/01/10 00:37:23;;;;;;;;;;;;;;;;;;5063921;28;19924;-94
2022/01/10 00:39:49;;;;;;;;;;;;;;;;;;5045351;28;19932;-94
2022/01/10 00:42:16;;;;;;;;;;;;;;;;;;5053984;28;19951;-95
2022/01/10 00:44:49;;;;;;;;;;;;;;;;;;5063401;28;19931;-95
2022/01/10 00:47:15;;;;;;;;;;;;;;;;;;5064415;28;19929;-94
2022/01/10 00:49:42;;;;;;;;;;;;;;;;;;5064932;28;19933;-94
2022/01/10 00:52:08;;;;;;;;;;;;;;;;;;5064953;28;19924;-94
2022/01/10 00:54:34;;;;;;;;;;;;;;;;;;5065352;28;19938;-95
2022/01/10 00:57:00;;;;;;;;;;;;;;;;;;5064164;28;19924;-95
2022/01/10 00:59:27;;;;;;;;;;;;;;;;;;5064279;28;19928;-95
2022/01/10 01:01:53;;;;;;;;;;;;;;;;;;5064831;28;19924;-94
2022/01/10 01:04:20;;;;;;;;;;;;;;;;;;5058910;28;20495;-94
2022/01/10 01:06:47;;;;;;;;;;;;;;;;;;5047873;28;19928;-94
2022/01/10 01:09:16;;;;;;;;;;;;;;;;;;5063247;28;19929;-95
2022/01/10 01:12:07;;;;;;;;;;;;;;;;;;5064163;28;19936;-95
2022/01/10 01:14:52;;;;;;;;;;;;;;;;;;5064831;28;20032;-94
2022/01/10 01:20:19;;;;;;;;;;;;;;;;;;5060183;28;19932;-94
2022/01/10 01:25:29;;;;;;;;;;;;;;;;;;5062216;28;19971;-93
2022/01/10 01:27:56;;;;;;;;;;;;;;;;;;5062957;28;19959;-94
2022/01/10 01:30:22;;;;;;;;;;;;;;;;;;5062352;28;19928;-94
2022/01/10 01:32:49;;;;;;;;;;;;;;;;;;5064763;28;20620;-94
2022/01/10 01:35:15;;;;;;;;;;;;;;;;;;5064616;28;20016;-93
2022/01/10 01:37:41;;;;;;;;;;;;;;;;;;5062848;28;19928;-94
2022/01/10 01:40:09;;;;;;;;;;;;;;;;;;5062253;28;19932;-94
2022/01/10 01:42:38;;;;;;;;;;;;;;;;;;5063071;28;19956;-93
2022/01/10 01:45:05;;;;;;;;;;;;;;;;;;5063247;28;19929;-94
2022/01/10 01:47:31;;;;;;;;;;;;;;;;;;5062729;28;19925;-94
2022/01/10 01:49:59;;;;;;;;;;;;;;;;;;5062907;28;20045;-94
2022/01/10 01:52:25;;;;;;;;;;;;;;;;;;5064207;28;19929;-94
2022/01/10 01:54:52;;;;;;;;;;;;;;;;;;5063480;28;19972;-93
2022/01/10 01:57:18;;;;;;;;;;;;;;;;;;5063933;28;19929;-94
2022/01/10 01:59:44;;;;;;;;;;;;;;;;;;5063387;28;19925;-94
2022/01/10 02:02:10;;;;;;;;;;;;;;;;;;5063524;28;20351;-93
2022/01/10 02:04:37;;;;;;;;;;;;;;;;;;5063262;28;19967;-93
2022/01/10 02:07:03;;;;;;;;;;;;;;;;;;5062200;28;20524;-94
2022/01/10 02:09:30;;;;;;;;;;;;;;;;;;5061714;28;19933;-94
2022/01/10 02:11:57;;;;;;;;;;;;;;;;;;5061502;28;19936;-94
2022/01/10 02:14:23;;;;;;;;;;;;;;;;;;5061298;28;19955;-94
2022/01/10 02:16:55;;;;;;;;;;;;;;;;;;5062546;28;19967;-93
2022/01/10 02:19:21;;;;;;;;;;;;;;;;;;5063363;28;19932;-94
2022/01/10 02:21:47;;;;;;;;;;;;;;;;;;5062473;28;19925;-93
2022/01/10 02:24:14;;;;;;;;;;;;;;;;;;5040856;28;19929;-94
2022/01/10 02:26:40;;;;;;;;;;;;;;;;;;5041927;28;19929;-93
2022/01/10 02:29:06;;;;;;;;;;;;;;;;;;5060920;28;19925;-93
2022/01/10 02:31:34;;;;;;;;;;;;;;;;;;5062372;28;19947;-93
2022/01/10 02:34:00;;;;;;;;;;;;;;;;;;5062349;28;19928;-93
2022/01/10 02:36:27;;;;;;;;;;;;;;;;;;5062277;28;19979;-94
2022/01/10 02:38:53;;;;;;;;;;;;;;;;;;5045957;28;19929;-94
2022/01/10 02:41:19;;;;;;;;;;;;;;;;;;5042839;28;20365;-93
2022/01/10 02:43:46;;;;;;;;;;;;;;;;;;5058083;28;19983;-94
2022/01/10 02:46:12;;;;;;;;;;;;;;;;;;5062538;28;19975;-94
2022/01/10 02:48:39;;;;;;;;;;;;;;;;;;5062600;28;19933;-94
2022/01/10 02:51:06;;;;;;;;;;;;;;;;;;5062919;28;19951;-92
2022/01/10 02:53:32;;;;;;;;;;;;;;;;;;5062562;28;19925;-95
2022/01/10 02:55:58;;;;;;;;;;;;;;;;;;5062563;28;19928;-94
2022/01/10 02:58:25;;;;;;;;;;;;;;;;;;5061409;28;19929;-94
2022/01/10 03:00:51;;;;;;;;;;;;;;;;;;5061653;28;19929;-94
2022/01/10 03:03:17;;;;;;;;;;;;;;;;;;5062603;28;19944;-94
2022/01/10 03:05:43;;;;;;;;;;;;;;;;;;5062750;28;19929;-95
2022/01/10 03:08:10;;;;;;;;;;;;;;;;;;5059981;28;19929;-94
2022/01/10 03:10:36;;;;;;;;;;;;;;;;;;5060092;28;19924;-94
2022/01/10 03:13:02;;;;;;;;;;;;;;;;;;5061179;28;19925;-94
2022/01/10 03:15:28;;;;;;;;;;;;;;;;;;5061890;28;19933;-95
2022/01/10 03:17:55;;;;;;;;;;;;;;;;;;5062698;28;19954;-94
2022/01/10 03:20:23;;;;;;;;;;;;;;;;;;5062053;28;19929;-94
2022/01/10 03:22:49;;;;;;;;;;;;;;;;;;5061861;28;19988;-93
2022/01/10 03:25:15;;;;;;;;;;;;;;;;;;5061571;28;19929;-93
2022/01/10 03:27:41;;;;;;;;;;;;;;;;;;5061782;28;19929;-92
2022/01/10 03:30:08;;;;;;;;;;;;;;;;;;5062172;28;19924;-93
2022/01/10 03:32:34;;;;;;;;;;;;;;;;;;5062197;28;20509;-93
2022/01/10 03:35:00;;;;;;;;;;;;;;;;;;5062350;28;19995;-93
2022/01/10 03:37:26;;;;;;;;;;;;;;;;;;5061879;28;19929;-94
2022/01/10 03:39:53;;;;;;;;;;;;;;;;;;5061891;28;19979;-94
2022/01/10 03:42:19;;;;;;;;;;;;;;;;;;5060801;28;19933;-93
2022/01/10 03:44:45;;;;;;;;;;;;;;;;;;5060924;28;19925;-94
2022/01/10 03:47:11;;;;;;;;;;;;;;;;;;5060638;28;19948;-93
2022/01/10 03:49:38;;;;;;;;;;;;;;;;;;5060527;28;19925;-93
2022/01/10 03:52:04;;;;;;;;;;;;;;;;;;5060341;28;19975;-94
2022/01/10 03:54:30;;;;;;;;;;;;;;;;;;5059506;28;19970;-93
2022/01/10 03:56:56;;;;;;;;;;;;;;;;;;5060864;28;19933;-93
2022/01/10 03:59:23;;;;;;;;;;;;;;;;;;5060804;28;19991;-93
2022/01/10 04:01:51;;;;;;;;;;;;;;;;;;5061123;28;19929;-94
2022/01/10 04:04:17;;;;;;;;;;;;;;;;;;5059838;28;19928;-94
2022/01/10 04:06:43;;;;;;;;;;;;;;;;;;5060739;28;19983;-94
2022/01/10 04:09:10;;;;;;;;;;;;;;;;;;5061244;28;19928;-92
2022/01/10 04:11:36;;;;;;;;;;;;;;;;;;5061413;28;19924;-93
2022/01/10 04:14:02;;;;;;;;;;;;;;;;;;5060448;28;19929;-93
2022/01/10 04:16:28;;;;;;;;;;;;;;;;;;5061298;28;19925;-94
2022/01/10 04:18:55;;;;;;;;;;;;;;;;;;5060292;28;19947;-94
2022/01/10 04:21:21;;;;;;;;;;;;;;;;;;5080488;28;19951;-95
2022/01/10 04:23:47;;;;;;;;;;;;;;;;;;5069889;28;20012;-94
2022/01/10 04:26:13;;;;;;;;;;;;;;;;;;5059614;28;19925;-93
2022/01/10 04:28:40;;;;;;;;;;;;;;;;;;5060248;28;19929;-93
2022/01/10 04:31:06;;;;;;;;;;;;;;;;;;5060762;28;19928;-94
2022/01/10 04:33:32;;;;;;;;;;;;;;;;;;5060727;28;19935;-93
2022/01/10 04:35:58;;;;;;;;;;;;;;;;;;5060610;28;20584;-93
2022/01/10 04:38:25;;;;;;;;;;;;;;;;;;5060833;28;20090;-92
2022/01/10 04:40:51;;;;;;;;;;;;;;;;;;5060775;28;19925;-93
2022/01/10 04:43:17;;;;;;;;;;;;;;;;;;5060463;28;19925;-93
2022/01/10 04:45:43;;;;;;;;;;;;;;;;;;5057692;28;19932;-93
2022/01/10 04:48:10;;;;;;;;;;;;;;;;;;5060961;28;19929;-93
2022/01/10 04:51:10;;;;;;;;;;;;;;;;;;5060807;28;19928;-93
2022/01/10 04:53:36;;;;;;;;;;;;;;;;;;5059537;28;19929;-94
2022/01/10 04:56:03;;;;;;;;;;;;;;;;;;5062930;28;20016;-95
2022/01/10 04:58:29;;;;;;;;;;;;;;;;;;5063654;28;20006;-92
2022/01/10 05:00:55;;;;;;;;;;;;;;;;;;5063675;28;19994;-92
2022/01/10 05:03:21;;;;;;;;;;;;;;;;;;5063860;28;19932;-94
2022/01/10 05:05:52;;;;;;;;;;;;;;;;;;5048255;28;19925;-94
2022/01/10 05:08:18;;;;;;;;;;;;;;;;;;5047346;28;19929;-92
2022/01/10 05:10:44;;;;;;;;;;;;;;;;;;5064248;28;19981;-92
2022/01/10 05:13:11;;;;;;;;;;;;;;;;;;5058632;28;19925;-93
2022/01/10 05:15:37;;;;;;;;;;;;;;;;;;5061365;28;19947;-93
2022/01/10 05:18:03;;;;;;;;;;;;;;;;;;5064198;28;19936;-96
2022/01/10 05:20:29;;;;;;;;;;;;;;;;;;5063798;28;19955;-92
2022/01/10 05:22:56;;;;;;;;;;;;;;;;;;5063525;28;19982;-94
2022/01/10 05:25:22;;;;;;;;;;;;;;;;;;5062725;28;19925;-93
2022/01/10 05:27:48;;;;;;;;;;;;;;;;;;5062534;28;19948;-94
2022/01/10 05:30:14;;;;;;;;;;;;;;;;;;5062798;28;19978;-94
2022/01/10 05:32:41;;;;;;;;;;;;;;;;;;5061937;28;19928;-93
2022/01/10 05:35:07;;;;;;;;;;;;;;;;;;5043990;28;19925;-94
2022/01/10 05:37:33;;;;;;;;;;;;;;;;;;5042686;28;19947;-93
2022/01/10 05:39:59;;;;;;;;;;;;;;;;;;5059730;28;19928;-93
2022/01/10 05:42:26;;;;;;;;;;;;;;;;;;5059084;28;19929;-93
2022/01/10 05:44:52;;;;;;;;;;;;;;;;;;5058894;28;19929;-93
2022/01/10 05:47:19;;;;;;;;;;;;;;;;;;5059213;28;19928;-96
2022/01/10 05:49:47;;;;;;;;;;;;;;;;;;5062100;28;19925;-94
2022/01/10 05:52:14;;;;;;;;;;;;;;;;;;5061276;28;20301;-94
2022/01/10 05:54:40;;;;;;;;;;;;;;;;;;5060043;28;20410;-94
2022/01/10 05:57:06;;;;;;;;;;;;;;;;;;5061750;28;19928;-94
2022/01/10 05:59:33;;;;;;;;;;;;;;;;;;5063251;28;19929;-94
2022/01/10 06:01:59;;;;;;;;;;;;;;;;;;5062103;28;19925;-94
2022/01/10 06:04:25;;;;;;;;;;;;;;;;;;5060513;28;19978;-94
2022/01/10 06:06:51;;;;;;;;;;;;;;;;;;5061889;28;19924;-95
2022/01/10 06:09:18;;;;;;;;;;;;;;;;;;5061534;28;19928;-95
2022/01/10 06:11:45;;;;;;;;;;;;;;;;;;5058438;28;19929;-95
2022/01/10 06:14:11;;;;;;;;;;;;;;;;;;5051805;28;19929;-94
2022/01/10 06:16:38;;;;;;;;;;;;;;;;;;5040065;28;19952;-95
2022/01/10 06:19:04;;;;;;;;;;;;;;;;;;5046940;28;19929;-95
2022/01/10 06:21:30;;;;;;;;;;;;;;;;;;5061971;28;20837;-96
2022/01/10 06:23:56;;;;;;;;;;;;;;;;;;5060805;28;20351;-95
2022/01/10 06:26:23;;;;;;;;;;;;;;;;;;5061369;28;20142;-93
2022/01/10 06:28:49;;;;;;;;;;;;;;;;;;5060559;28;20533;-93
2022/01/10 06:31:15;;;;;;;;;;;;;;;;;;5057987;28;19932;-93
2022/01/10 06:33:41;;;;;;;;;;;;;;;;;;5056757;28;20091;-95
2022/01/10 06:36:08;;;;;;;;;;;;;;;;;;5056428;28;19983;-95
2022/01/10 06:38:35;;;;;;;;;;;;;;;;;;5058160;28;19937;-95
2022/01/10 06:41:01;;;;;;;;;;;;;;;;;;5058895;28;19924;-96
2022/01/10 06:43:27;;;;;;;;;;;;;;;;;;5056016;28;19929;-95
2022/01/10 06:45:53;;;;;;;;;;;;;;;;;;5059422;28;19924;-95
2022/01/10 06:48:20;;;;;;;;;;;;;;;;;;5062705;28;19928;-96
2022/01/10 06:50:48;;;;;;;;;;;;;;;;;;5062726;28;20374;-95
2022/01/10 06:53:14;;;;;;;;;;;;;;;;;;5062108;28;19980;-96
2022/01/10 06:55:40;;;;;;;;;;;;;;;;;;5061461;28;19929;-95
2022/01/10 06:58:06;;;;;;;;;;;;;;;;;;5062520;28;19929;-96
2022/01/10 07:00:33;;;;;;;;;;;;;;;;;;5062582;28;19929;-95
2022/01/10 07:02:59;;;;;;;;;;;;;;;;;;5062498;28;19929;-95
2022/01/10 07:05:25;;;;;;;;;;;;;;;;;;5061508;28;20381;-95
2022/01/10 07:07:51;;;;;;;;;;;;;;;;;;5062291;28;20307;-94
2022/01/10 07:10:18;;;;;;;;;;;;;;;;;;5061582;28;20324;-94
2022/01/10 07:12:44;;;;;;;;;;;;;;;;;;5062382;28;20134;-94
2022/01/10 07:15:10;;;;;;;;;;;;;;;;;;5062164;28;19974;-94
2022/01/10 07:17:36;;;;;;;;;;;;;;;;;;5060115;28;19932;-95
2022/01/10 07:20:03;;;;;;;;;;;;;;;;;;5060282;28;19982;-95
2022/01/10 07:22:29;;;;;;;;;;;;;;;;;;5060779;28;19932;-94
2022/01/10 07:24:55;;;;;;;;;;;;;;;;;;5060368;28;19951;-94
2022/01/10 07:27:21;;;;;;;;;;;;;;;;;;5060823;28;20410;-95
2022/01/10 07:29:49;;;;;;;;;;;;;;;;;;5060991;28;20332;-96
2022/01/10 07:32:15;;;;;;;;;;;;;;;;;;5061028;28;20027;-95
2022/01/10 07:34:41;;;;;;;;;;;;;;;;;;5060243;28;19975;-96
2022/01/10 07:37:08;;;;;;;;;;;;;;;;;;5061307;28;19971;-95
2022/01/10 07:39:34;;;;;;;;;;;;;;;;;;5061632;28;19982;-95
2022/01/10 07:42:00;;;;;;;;;;;;;;;;;;5061272;28;19928;-95
2022/01/10 07:44:26;;;;;;;;;;;;;;;;;;5059092;28;19951;-95
2022/01/10 07:46:55;;;;;;;;;;;;;;;;;;5059607;28;19928;-94
2022/01/10 07:49:21;;;;;;;;;;;;;;;;;;5060010;28;19933;-96
2022/01/10 07:51:47;;;;;;;;;;;;;;;;;;5060621;28;19925;-95
2022/01/10 07:54:13;;;;;;;;;;;;;;;;;;5061673;28;19925;-96
2022/01/10 07:56:39;;;;;;;;;;;;;;;;;;5061406;28;19925;-96
2022/01/10 07:59:06;;;;;;;;;;;;;;;;;;5060455;28;20375;-95
2022/01/10 08:01:32;;;;;;;;;;;;;;;;;;5061105;28;19964;-96
2022/01/10 08:03:58;;;;;;;;;;;;;;;;;;5061629;28;19975;-96
2022/01/10 08:06:25;;;;;;;;;;;;;;;;;;5061587;28;19929;-95
2022/01/10 08:08:51;;;;;;;;;;;;;;;;;;5060534;28;20023;-96
2022/01/10 08:11:17;;;;;;;;;;;;;;;;;;5060720;28;19928;-96
2022/01/10 08:13:44;;;;;;;;;;;;;;;;;;5060570;28;19929;-96
2022/01/10 08:16:10;;;;;;;;;;;;;;;;;;5061213;28;19925;-96
2022/01/10 08:18:36;;;;;;;;;;;;;;;;;;5061964;28;20276;-96
2022/01/10 08:21:02;;;;;;;;;;;;;;;;;;5061811;28;19975;-96
2022/01/10 08:23:29;;;;;;;;;;;;;;;;;;5060632;28;19929;-96
2022/01/10 08:25:55;;;;;;;;;;;;;;;;;;5060280;28;19929;-96
2022/01/10 08:28:22;;;;;;;;;;;;;;;;;;5064650;28;19928;-96
2022/01/10 08:30:49;;;;;;;;;;;;;;;;;;5064799;28;19928;-96
2022/01/10 08:33:15;;;;;;;;;;;;;;;;;;5065975;28;19932;-96
2022/01/10 08:35:41;;;;;;;;;;;;;;;;;;5066465;28;19940;-96
2022/01/10 08:38:08;;;;;;;;;;;;;;;;;;5065834;28;19932;-96
2022/01/10 08:40:34;;;;;;;;;;;;;;;;;;5065046;28;19935;-96
2022/01/10 08:43:06;;;;;;;;;;;;;;;;;;5065558;28;20058;-96
2022/01/10 08:45:32;;;;;;;;;;;;;;;;;;5064730;28;19929;-96
2022/01/10 08:47:58;;;;;;;;;;;;;;;;;;5065730;28;19924;-96
2022/01/10 08:50:26;;;;;;;;;;;;;;;;;;5064242;28;19924;-96
2022/01/10 08:52:53;;;;;;;;;;;;;;;;;;5046244;28;19984;-96
2022/01/10 08:55:19;;;;;;;;;;;;;;;;;;5053078;28;19947;-96
2022/01/10 08:57:45;;;;;;;;;;;;;;;;;;5066013;28;20296;-96
2022/01/10 09:00:13;;;;;;;;;;;;;;;;;;5065052;28;19951;-96
2022/01/10 09:02:39;;;;;;;;;;;;;;;;;;5066562;28;19932;-96
2022/01/10 09:05:06;;;;;;;;;;;;;;;;;;5066765;28;19932;-96
2022/01/10 09:07:32;;;;;;;;;;;;;;;;;;5066560;28;19925;-96
2022/01/10 09:09:58;;;;;;;;;;;;;;;;;;5066141;28;19931;-96
2022/01/10 09:12:25;;;;;;;;;;;;;;;;;;5065422;28;19928;-96
2022/01/10 09:14:51;;;;;;;;;;;;;;;;;;5064722;28;20297;-96
2022/01/10 09:17:17;;;;;;;;;;;;;;;;;;5060559;28;19929;-96
2022/01/10 09:19:44;;;;;;;;;;;;;;;;;;5047121;28;19932;-96
2022/01/10 09:22:10;;;;;;;;;;;;;;;;;;5046790;28;19925;-96
2022/01/10 09:24:36;;;;;;;;;;;;;;;;;;5044734;28;20317;-96
2022/01/10 09:27:03;;;;;;;;;;;;;;;;;;5064565;28;19925;-96
2022/01/10 09:29:29;;;;;;;;;;;;;;;;;;5065807;28;20308;-96
2022/01/10 09:31:55;;;;;;;;;;;;;;;;;;5060264;28;19939;-96
2022/01/10 09:34:22;;;;;;;;;;;;;;;;;;5063993;28;20458;-96
2022/01/10 09:36:48;;;;;;;;;;;;;;;;;;5065408;28;19929;-96
2022/01/10 09:39:15;;;;;;;;;;;;;;;;;;5064895;28;19924;-96
2022/01/10 09:41:41;;;;;;;;;;;;;;;;;;5065090;28;19929;-96
2022/01/10 09:44:07;;;;;;;;;;;;;;;;;;5066559;28;19928;-96
2022/01/10 09:46:34;;;;;;;;;;;;;;;;;;5067766;28;19936;-96
2022/01/10 09:49:01;;;;;;;;;;;;;;;;;;5066869;28;19924;-96
2022/01/10 09:51:28;;;;;;;;;;;;;;;;;;5066065;28;19925;-96
2022/01/10 09:53:54;;;;;;;;;;;;;;;;;;5066637;28;19931;-96
2022/01/10 09:56:20;;;;;;;;;;;;;;;;;;5064961;28;19925;-96
2022/01/10 09:58:47;;;;;;;;;;;;;;;;;;5065847;28;19929;-96
2022/01/10 10:01:13;;;;;;;;;;;;;;;;;;5066415;28;19929;-96
2022/01/10 10:03:39;;;;;;;;;;;;;;;;;;5057780;28;20270;-96
2022/01/10 10:06:06;;;;;;;;;;;;;;;;;;5057592;28;19925;-96
2022/01/10 10:08:33;;;;;;;;;;;;;;;;;;5068126;28;19931;-97
2022/01/10 10:10:59;;;;;;;;;;;;;;;;;;5068676;28;19925;-96
2022/01/10 10:13:25;;;;;;;;;;;;;;;;;;5065978;28;19924;-97
2022/01/10 10:15:52;;;;;;;;;;;;;;;;;;5064666;28;19996;-96
2022/01/10 10:18:20;;;;;;;;;;;;;;;;;;5067321;28;19939;-96
2022/01/10 10:20:46;;;;;;;;;;;;;;;;;;5066930;28;19932;-96
2022/01/10 10:23:14;;;;;;;;;;;;;;;;;;5065601;28;19925;-96
2022/01/10 10:25:40;;;;;;;;;;;;;;;;;;5065917;28;20343;-96
2022/01/10 10:28:06;;;;;;;;;;;;;;;;;;5066018;28;19931;-96
2022/01/10 10:30:34;;;;;;;;;;;;;;;;;;5068272;28;19963;-96
2022/01/10 10:33:01;;;;;;;;;;;;;;;;;;5076004;28;19924;-96
2022/01/10 10:35:27;;;;;;;;;;;;;;;;;;5072317;28;20000;-97
2022/01/10 10:40:36;;;;;;;;;;;;;;;;;;5071240;28;19931;-96
2022/01/10 10:43:02;;;;;;;;;;;;;;;;;;5070151;28;19933;-96
2022/01/10 10:45:29;;;;;;;;;;;;;;;;;;5070507;28;19955;-96
2022/01/10 10:47:59;;;;;;;;;;;;;;;;;;5053280;28;19968;-96
2022/01/10 10:50:29;;;;;;;;;;;;;;;;;;5069065;28;19971;-96
2022/01/10 10:52:58;;;;;;;;;;;;;;;;;;5069629;28;19925;-96
2022/01/10 10:55:24;;;;;;;;;;;;;;;;;;5068923;28;19996;-96
2022/01/10 10:57:52;;;;;;;;;;;;;;;;;;5050975;28;19920;-96
2022/01/10 11:00:19;;;;;;;;;;;;;;;;;;5058328;28;19925;-96
2022/01/10 11:02:46;;;;;;;;;;;;;;;;;;5067558;28;19993;-96
2022/01/10 11:05:15;;;;;;;;;;;;;;;;;;5068856;28;19944;-97
2022/01/10 11:07:46;;;;;;;;;;;;;;;;;;5071811;28;19955;-96
2022/01/10 11:10:13;;;;;;;;;;;;;;;;;;5070447;28;19928;-96
2022/01/10 11:12:44;;;;;;;;;;;;;;;;;;5059050;28;19955;-98
2022/01/10 11:15:13;;;;;;;;;;;;;;;;;;5076707;28;19928;-96
2022/01/10 11:17:49;;;;;;;;;;;;;;;;;;5059026;28;19939;-96
2022/01/10 11:20:16;;;;;;;;;;;;;;;;;;5073314;28;19925;-96
2022/01/10 11:22:43;;;;;;;;;;;;;;;;;;5068972;28;20011;-96
2022/01/10 11:25:10;;;;;;;;;;;;;;;;;;5073051;28;19921;-96
2022/01/10 11:27:39;;;;;;;;;;;;;;;;;;5070688;28;20246;-96
2022/01/10 11:30:16;;;;;;;;;;;;;;;;;;5057372;28;19913;-96
2022/01/10 11:32:56;;;;;;;;;;;;;;;;;;5393657;23;19913;-96
2022/01/10 11:35:23;;;;;;;;;;;;;;;;;;5053370;28;19925;-96
2022/01/10 11:37:51;;;;;;;;;;;;;;;;;;5053727;28;19933;-96
2022/01/10 11:40:22;;;;;;;;;;;;;;;;;;5051323;28;19913;-96
2022/01/10 11:42:49;;;;;;;;;;;;;;;;;;5032855;28;19921;-96
2022/01/10 11:45:23;;;;;;;;;;;;;;;;;;5029973;28;19925;-96
2022/01/10 11:50:34;;;;;;;;;;;;;;;;;;5050685;28;19925;-96
2022/01/10 11:53:00;;;;;;;;;;;;;;;;;;5033549;28;19997;-96
2022/01/10 11:55:27;;;;;;;;;;;;;;;;;;5034248;28;19910;-96
2022/01/10 11:57:58;;;;;;;;;;;;;;;;;;5030450;28;19948;-96
2022/01/10 12:00:24;;;;;;;;;;;;;;;;;;5031944;28;19926;-96
2022/01/10 12:02:52;;;;;;;;;;;;;;;;;;5030914;28;19929;-96
2022/01/10 12:05:18;;;;;;;;;;;;;;;;;;5031238;28;19939;-96
2022/01/10 12:07:45;;;;;;;;;;;;;;;;;;5032154;28;19932;-96
2022/01/10 12:10:12;;;;;;;;;;;;;;;;;;5047548;28;19931;-96
2022/01/10 12:12:40;;;;;;;;;;;;;;;;;;5049706;28;19936;-96
2022/01/10 12:15:07;;;;;;;;;;;;;;;;;;5052974;28;19932;-96
2022/01/10 12:17:36;;;;;;;;;;;;;;;;;;5055578;28;19981;-96
2022/01/10 12:20:06;;;;;;;;;;;;;;;;;;5052939;28;19932;-96
2022/01/10 12:22:33;;;;;;;;;;;;;;;;;;5055121;28;19921;-96
2022/01/10 12:25:01;;;;;;;;;;;;;;;;;;5051290;28;20591;-96
2022/01/10 12:27:29;;;;;;;;;;;;;;;;;;5048757;28;19925;-96
2022/01/10 12:29:56;;;;;;;;;;;;;;;;;;5035403;28;19932;-96
2022/01/10 12:32:23;;;;;;;;;;;;;;;;;;5031925;28;19925;-96
2022/01/10 12:34:49;;;;;;;;;;;;;;;;;;5029180;28;19926;-96
2022/01/10 12:37:16;;;;;;;;;;;;;;;;;;5029654;28;19932;-96
2022/01/10 12:39:42;;;;;;;;;;;;;;;;;;5026681;28;19939;-96
2022/01/10 12:42:08;;;;;;;;;;;;;;;;;;5037059;28;19936;-96
2022/01/10 12:44:35;;;;;;;;;;;;;;;;;;5030048;28;19925;-96
2022/01/10 12:47:01;;;;;;;;;;;;;;;;;;5028328;28;19925;-96
2022/01/10 12:49:27;;;;;;;;;;;;;;;;;;5026603;28;20385;-96
2022/01/10 12:51:54;;;;;;;;;;;;;;;;;;5032924;28;19964;-96
2022/01/10 12:54:20;;;;;;;;;;;;;;;;;;5044774;28;19932;-96
2022/01/10 12:56:46;;;;;;;;;;;;;;;;;;5045456;28;19925;-96
2022/01/10 12:59:13;;;;;;;;;;;;;;;;;;5031810;28;19925;-96
2022/01/10 13:01:39;;;;;;;;;;;;;;;;;;5031796;28;19929;-96
2022/01/10 13:04:05;;;;;;;;;;;;;;;;;;5044350;28;19932;-96
2022/01/10 13:06:32;;;;;;;;;;;;;;;;;;5045037;28;19936;-96
2022/01/10 13:08:58;;;;;;;;;;;;;;;;;;5047041;28;19991;-96
2022/01/10 13:11:31;;;;;;;;;;;;;;;;;;5046438;28;19929;-96
2022/01/10 13:14:09;;;;;;;;;;;;;;;;;;5035446;28;19930;-96
2022/01/10 13:16:35;;;;;;;;;;;;;;;;;;5031396;28;19929;-96
2022/01/10 13:19:02;;;;;;;;;;;;;;;;;;5045758;28;19929;-96
2022/01/10 13:21:28;;;;;;;;;;;;;;;;;;5044780;28;19929;-96
2022/01/10 13:23:55;;;;;;;;;;;;;;;;;;5046093;28;20023;-96
2022/01/10 13:26:27;;;;;;;;;;;;;;;;;;5046876;28;19925;-96
2022/01/10 13:28:53;;;;;;;;;;;;;;;;;;5045909;28;19929;-96
2022/01/10 13:31:20;;;;;;;;;;;;;;;;;;5045943;28;19926;-96
2022/01/10 13:33:46;;;;;;;;;;;;;;;;;;5045438;28;19937;-96
2022/01/10 13:36:14;;;;;;;;;;;;;;;;;;5045847;28;19925;-96
2022/01/10 13:38:41;;;;;;;;;;;;;;;;;;5045095;28;19925;-96
2022/01/10 13:41:07;;;;;;;;;;;;;;;;;;5045862;28;19925;-96
2022/01/10 13:43:33;;;;;;;;;;;;;;;;;;5038283;28;19929;-96
2022/01/10 13:46:02;;;;;;;;;;;;;;;;;;5045282;28;19932;-96
2022/01/10 13:48:29;;;;;;;;;;;;;;;;;;5044903;28;19926;-96
2022/01/10 13:50:55;;;;;;;;;;;;;;;;;;5043967;28;20447;-96
2022/01/10 13:53:23;;;;;;;;;;;;;;;;;;5046152;28;19936;-96
2022/01/10 13:55:49;;;;;;;;;;;;;;;;;;5046998;28;19929;-96
2022/01/10 13:58:18;;;;;;;;;;;;;;;;;;5041623;28;19926;-96
2022/01/10 14:00:45;;;;;;;;;;;;;;;;;;5052268;28;19937;-96
2022/01/10 14:06:14;;;;;;;;;;;;;;;;;;5039310;27;3269548;-96
2022/01/10 14:08:41;;;;;;;;;;;;;;;;;;5167833;27;19946;-96
2022/01/10 14:11:11;;;;;;;;;;;;;;;;;;5170479;27;19927;-96
2022/01/10 14:13:40;;;;;;;;;;;;;;;;;;5151704;27;19920;-96
2022/01/10 14:16:06;;;;;;;;;;;;;;;;;;5145982;28;19934;-96
2022/01/10 14:18:34;;;;;;;;;;;;;;;;;;5157853;27;19947;-96
2022/01/10 14:21:05;;;;;;;;;;;;;;;;;;5144422;27;19986;-96
2022/01/10 14:23:32;;;;;;;;;;;;;;;;;;5151871;27;19923;-96
2022/01/10 14:26:00;;;;;;;;;;;;;;;;;;5125872;28;19923;-96
2022/01/10 14:28:27;;;;;;;;;;;;;;;;;;5142183;27;19934;-96
2022/01/10 14:30:53;;;;;;;;;;;;;;;;;;5143157;28;19927;-96
2022/01/10 14:33:23;;;;;;;;;;;;;;;;;;5139940;27;19952;-96
2022/01/10 14:35:49;;;;;;;;;;;;;;;;;;5137271;28;19992;-96
2022/01/10 14:38:15;;;;;;;;;;;;;;;;;;5148793;27;19928;-96
2022/01/10 14:40:41;;;;;;;;;;;;;;;;;;5137812;28;19924;-96
2022/01/10 14:43:08;;;;;;;;;;;;;;;;;;5152770;27;19927;-96
2022/01/10 14:45:36;;;;;;;;;;;;;;;;;;5143476;27;19930;-96
2022/01/10 14:48:02;;;;;;;;;;;;;;;;;;5143185;28;20014;-96
2022/01/10 14:50:29;;;;;;;;;;;;;;;;;;5143914;28;19937;-96
2022/01/10 14:53:05;;;;;;;;;;;;;;;;;;5146603;28;19934;-96
2022/01/10 14:55:54;;;;;;;;;;;;;;;;;;5144057;27;20018;-96
2022/01/10 14:58:21;;;;;;;;;;;;;;;;;;5148095;27;19951;-96
2022/01/10 15:00:48;;;;;;;;;;;;;;;;;;5156026;27;19927;-96
2022/01/10 15:03:14;;;;;;;;;;;;;;;;;;5148693;27;19928;-96
2022/01/10 15:05:40;;;;;;;;;;;;;;;;;;5163180;27;20842;-96
2022/01/10 15:08:07;;;;;;;;;;;;;;;;;;5152498;27;19989;-96
2022/01/10 15:10:33;;;;;;;;;;;;;;;;;;5149344;27;19945;-96
2022/01/10 15:13:01;;;;;;;;;;;;;;;;;;5127966;28;19923;-96
2022/01/10 15:15:27;;;;;;;;;;;;;;;;;;5147669;27;19935;-95
2022/01/10 15:17:58;;;;;;;;;;;;;;;;;;5104198;22;19916;-96
2022/01/10 15:20:24;;;;;;;;;;;;;;;;;;5068530;28;20613;-96
2022/01/10 15:22:50;;;;;;;;;;;;;;;;;;5121558;22;20804;-96
2022/01/10 15:25:16;;;;;;;;;;;;;;;;;;5112251;28;19924;-95
2022/01/10 15:27:44;;;;;;;;;;;;;;;;;;5127569;28;19933;-96
2022/01/10 15:30:11;;;;;;;;;;;;;;;;;;5111178;28;19935;-96
2022/01/10 15:32:37;;;;;;;;;;;;;;;;;;5126566;28;19928;-96
2022/01/10 15:35:06;;;;;;;;;;;;;;;;;;5127879;28;19931;-96
2022/01/10 15:37:32;;;;;;;;;;;;;;;;;;5125941;28;19927;-96
2022/01/10 15:39:59;;;;;;;;;;;;;;;;;;5124977;28;19924;-96
2022/01/10 15:42:25;;;;;;;;;;;;;;;;;;5125837;28;19924;-96
2022/01/10 15:44:53;;;;;;;;;;;;;;;;;;5118863;28;19945;-96
2022/01/10 15:47:20;;;;;;;;;;;;;;;;;;5106004;28;19974;-96
2022/01/10 15:49:46;;;;;;;;;;;;;;;;;;5121839;28;19988;-96
2022/01/10 15:52:15;;;;;;;;;;;;;;;;;;5126055;28;19924;-96
2022/01/10 15:54:41;;;;;;;;;;;;;;;;;;5123385;28;19991;-96
2022/01/10 15:57:07;;;;;;;;;;;;;;;;;;5124670;28;19924;-96
2022/01/10 15:59:34;;;;;;;;;;;;;;;;;;5145393;27;19923;-96
2022/01/10 16:02:00;;;;;;;;;;;;;;;;;;5145194;27;19998;-96
2022/01/10 16:04:26;;;;;;;;;;;;;;;;;;5112825;28;19928;-96
2022/01/10 16:06:55;;;;;;;;;;;;;;;;;;5114901;28;19928;-96
2022/01/10 16:09:21;;;;;;;;;;;;;;;;;;5121833;28;20356;-96
2022/01/10 16:11:48;;;;;;;;;;;;;;;;;;5121631;28;19928;-96
2022/01/10 16:14:14;;;;;;;;;;;;;;;;;;5123107;28;19928;-96
2022/01/10 16:16:42;;;;;;;;;;;;;;;;;;5123475;28;19934;-96
2022/01/10 16:19:08;;;;;;;;;;;;;;;;;;5119728;28;19928;-96
2022/01/10 16:21:34;;;;;;;;;;;;;;;;;;5124613;28;19927;-96
2022/01/10 16:24:01;;;;;;;;;;;;;;;;;;5110149;28;19948;-96
2022/01/10 16:26:27;;;;;;;;;;;;;;;;;;5102677;28;19928;-96
2022/01/10 16:28:53;;;;;;;;;;;;;;;;;;5113526;28;19927;-96
2022/01/10 16:31:20;;;;;;;;;;;;;;;;;;5114717;28;19924;-96
2022/01/10 16:33:46;;;;;;;;;;;;;;;;;;5113645;28;19938;-96
2022/01/10 16:36:12;;;;;;;;;;;;;;;;;;5123632;28;19932;-96
2022/01/10 16:38:38;;;;;;;;;;;;;;;;;;5121864;28;20469;-96
2022/01/10 16:43:48;;;;;;;;;;;;;;;;;;5120115;28;19938;-96
2022/01/10 16:46:14;;;;;;;;;;;;;;;;;;5123661;28;20066;-96
2022/01/10 16:48:41;;;;;;;;;;;;;;;;;;5123792;28;19938;-96
2022/01/10 16:51:07;;;;;;;;;;;;;;;;;;5124159;28;19946;-96
2022/01/10 16:53:33;;;;;;;;;;;;;;;;;;5116477;28;19928;-96
2022/01/10 16:55:59;;;;;;;;;;;;;;;;;;5103916;28;19939;-96
2022/01/10 16:58:26;;;;;;;;;;;;;;;;;;5111142;28;19938;-96
2022/01/10 17:00:52;;;;;;;;;;;;;;;;;;5122795;28;19928;-96